sensor_id;sensor_type;location;lat;lon;timestamp;pressure;altitude;pressure_sealevel;temperature;humidity
62632;BME280;48703;51.248;-0.546;2023-07-24T00:02:07;99766;;;16.51;83.74
62632;BME280;48703;51.248;-0.546;2023-07-24T00:05:08;99767;;;16.50;84.35
62632;BME280;48703;51.248;-0.546;2023-07-24T00:08:10;99765;;;16.49;84.45
62632;BME280;48703;51.248;-0.546;2023-07-24T00:11:12;99760;;;16.48;84.82
62632;BME280;48703;51.248;-0.546;2023-07-24T00:14:14;99757;;;16.47;84.62
62632;BME280;48703;51.248;-0.546;2023-07-24T00:17:16;99760;;;16.46;85.22
62632;BME280;48703;51.248;-0.546;2023-07-24T00:20:18;99759;;;16.45;85.28
62632;BME280;48703;51.248;-0.546;2023-07-24T00:23:20;99754;;;16.42;84.64
62632;BME280;48703;51.248;-0.546;2023-07-24T00:26:22;99751;;;16.40;84.97
62632;BME280;48703;51.248;-0.546;2023-07-24T00:29:23;99750;;;16.37;84.61
62632;BME280;48703;51.248;-0.546;2023-07-24T00:32:25;99750;;;16.36;84.39
62632;BME280;48703;51.248;-0.546;2023-07-24T00:35:27;99751;;;16.35;84.61
62632;BME280;48703;51.248;-0.546;2023-07-24T00:38:29;99752;;;16.33;85.07
62632;BME280;48703;51.248;-0.546;2023-07-24T00:41:31;99749;;;16.32;85.09
62632;BME280;48703;51.248;-0.546;2023-07-24T00:44:33;99747;;;16.28;85.58
62632;BME280;48703;51.248;-0.546;2023-07-24T00:47:35;99745;;;16.29;85.15
62632;BME280;48703;51.248;-0.546;2023-07-24T00:50:37;99747;;;16.30;85.21
62632;BME280;48703;51.248;-0.546;2023-07-24T00:53:38;99748;;;16.31;85.06
62632;BME280;48703;51.248;-0.546;2023-07-24T00:56:40;99746;;;16.31;85.36
62632;BME280;48703;51.248;-0.546;2023-07-24T00:59:42;99741;;;16.30;85.37
62632;BME280;48703;51.248;-0.546;2023-07-24T01:02:44;99740;;;16.28;85.95
62632;BME280;48703;51.248;-0.546;2023-07-24T01:05:46;99736;;;16.26;85.73
62632;BME280;48703;51.248;-0.546;2023-07-24T01:08:48;99729;;;16.25;86.59
62632;BME280;48703;51.248;-0.546;2023-07-24T01:11:50;99727;;;16.26;86.83
62632;BME280;48703;51.248;-0.546;2023-07-24T01:14:52;99725;;;16.25;86.44
62632;BME280;48703;51.248;-0.546;2023-07-24T01:17:56;99716;;;16.24;86.05
62632;BME280;48703;51.248;-0.546;2023-07-24T01:20:56;99714;;;16.25;85.88
62632;BME280;48703;51.248;-0.546;2023-07-24T01:23:59;99715;;;16.24;85.91
62632;BME280;48703;51.248;-0.546;2023-07-24T01:26:59;99716;;;16.23;86.68
62632;BME280;48703;51.248;-0.546;2023-07-24T01:30:01;99715;;;16.21;86.46
62632;BME280;48703;51.248;-0.546;2023-07-24T01:33:03;99713;;;16.21;86.60
62632;BME280;48703;51.248;-0.546;2023-07-24T01:36:05;99714;;;16.18;86.77
62632;BME280;48703;51.248;-0.546;2023-07-24T01:39:06;99715;;;16.18;86.57
62632;BME280;48703;51.248;-0.546;2023-07-24T01:42:09;99712;;;16.19;86.38
62632;BME280;48703;51.248;-0.546;2023-07-24T01:45:10;99710;;;16.20;86.32
62632;BME280;48703;51.248;-0.546;2023-07-24T01:48:12;99708;;;16.19;86.02
62632;BME280;48703;51.248;-0.546;2023-07-24T01:51:14;99706;;;16.19;86.69
62632;BME280;48703;51.248;-0.546;2023-07-24T01:54:16;99704;;;16.17;86.42
62632;BME280;48703;51.248;-0.546;2023-07-24T01:57:18;99705;;;16.18;86.27
62632;BME280;48703;51.248;-0.546;2023-07-24T02:00:20;99706;;;16.18;86.10
62632;BME280;48703;51.248;-0.546;2023-07-24T02:03:21;99709;;;16.17;86.47
62632;BME280;48703;51.248;-0.546;2023-07-24T02:06:23;99714;;;16.16;86.44
62632;BME280;48703;51.248;-0.546;2023-07-24T02:09:25;99712;;;16.14;86.53
62632;BME280;48703;51.248;-0.546;2023-07-24T02:12:27;99711;;;16.11;86.96
62632;BME280;48703;51.248;-0.546;2023-07-24T02:15:29;99710;;;16.10;87.47
62632;BME280;48703;51.248;-0.546;2023-07-24T02:18:31;99708;;;16.09;86.72
62632;BME280;48703;51.248;-0.546;2023-07-24T02:21:33;99705;;;16.09;86.60
62632;BME280;48703;51.248;-0.546;2023-07-24T02:24:35;99700;;;16.09;86.60
62632;BME280;48703;51.248;-0.546;2023-07-24T02:27:36;99696;;;16.08;86.67
62632;BME280;48703;51.248;-0.546;2023-07-24T02:30:38;99691;;;16.06;86.82
62632;BME280;48703;51.248;-0.546;2023-07-24T02:33:40;99687;;;16.04;86.64
62632;BME280;48703;51.248;-0.546;2023-07-24T02:36:42;99685;;;16.04;87.41
62632;BME280;48703;51.248;-0.546;2023-07-24T02:39:44;99681;;;15.99;87.20
62632;BME280;48703;51.248;-0.546;2023-07-24T02:42:46;99674;;;15.97;87.33
62632;BME280;48703;51.248;-0.546;2023-07-24T02:45:48;99674;;;15.94;88.10
62632;BME280;48703;51.248;-0.546;2023-07-24T02:48:50;99676;;;15.91;87.74
62632;BME280;48703;51.248;-0.546;2023-07-24T02:51:51;99677;;;15.90;88.12
62632;BME280;48703;51.248;-0.546;2023-07-24T02:54:53;99675;;;15.89;87.64
62632;BME280;48703;51.248;-0.546;2023-07-24T02:57:55;99676;;;15.89;88.11
62632;BME280;48703;51.248;-0.546;2023-07-24T03:01:02;99680;;;15.86;88.26
62632;BME280;48703;51.248;-0.546;2023-07-24T03:03:59;99679;;;15.83;87.82
62632;BME280;48703;51.248;-0.546;2023-07-24T03:07:01;99675;;;15.85;88.12
62632;BME280;48703;51.248;-0.546;2023-07-24T03:10:03;99675;;;15.82;88.86
62632;BME280;48703;51.248;-0.546;2023-07-24T03:13:05;99675;;;15.82;87.99
62632;BME280;48703;51.248;-0.546;2023-07-24T03:16:06;99674;;;15.81;88.73
62632;BME280;48703;51.248;-0.546;2023-07-24T03:19:08;99674;;;15.82;88.31
62632;BME280;48703;51.248;-0.546;2023-07-24T03:22:10;99674;;;15.80;87.84
62632;BME280;48703;51.248;-0.546;2023-07-24T03:25:13;99672;;;15.79;88.44
62632;BME280;48703;51.248;-0.546;2023-07-24T03:28:14;99675;;;15.78;87.96
62632;BME280;48703;51.248;-0.546;2023-07-24T03:31:16;99673;;;15.78;87.97
62632;BME280;48703;51.248;-0.546;2023-07-24T03:34:18;99670;;;15.79;88.11
62632;BME280;48703;51.248;-0.546;2023-07-24T03:37:19;99667;;;15.79;88.16
62632;BME280;48703;51.248;-0.546;2023-07-24T03:40:21;99666;;;15.77;88.70
62632;BME280;48703;51.248;-0.546;2023-07-24T03:43:23;99665;;;15.76;88.06
62632;BME280;48703;51.248;-0.546;2023-07-24T03:46:25;99663;;;15.75;88.34
62632;BME280;48703;51.248;-0.546;2023-07-24T03:49:27;99661;;;15.74;87.89
62632;BME280;48703;51.248;-0.546;2023-07-24T03:52:29;99664;;;15.74;88.04
62632;BME280;48703;51.248;-0.546;2023-07-24T03:55:31;99664;;;15.74;88.16
62632;BME280;48703;51.248;-0.546;2023-07-24T03:58:33;99663;;;15.71;88.60
62632;BME280;48703;51.248;-0.546;2023-07-24T04:01:34;99662;;;15.69;88.39
62632;BME280;48703;51.248;-0.546;2023-07-24T04:04:36;99667;;;15.68;88.31
62632;BME280;48703;51.248;-0.546;2023-07-24T04:07:38;99670;;;15.67;88.70
62632;BME280;48703;51.248;-0.546;2023-07-24T04:10:40;99674;;;15.65;88.41
62632;BME280;48703;51.248;-0.546;2023-07-24T04:13:42;99681;;;15.63;89.33
62632;BME280;48703;51.248;-0.546;2023-07-24T04:16:44;99684;;;15.60;88.85
62632;BME280;48703;51.248;-0.546;2023-07-24T04:19:46;99685;;;15.60;88.62
62632;BME280;48703;51.248;-0.546;2023-07-24T04:22:48;99685;;;15.59;89.67
62632;BME280;48703;51.248;-0.546;2023-07-24T04:25:50;99686;;;15.60;89.37
62632;BME280;48703;51.248;-0.546;2023-07-24T04:28:51;99685;;;15.59;89.52
62632;BME280;48703;51.248;-0.546;2023-07-24T04:31:53;99686;;;15.59;89.40
62632;BME280;48703;51.248;-0.546;2023-07-24T04:34:55;99685;;;15.59;89.54
62632;BME280;48703;51.248;-0.546;2023-07-24T04:37:57;99687;;;15.60;89.51
62632;BME280;48703;51.248;-0.546;2023-07-24T04:41:00;99685;;;15.58;91.10
62632;BME280;48703;51.248;-0.546;2023-07-24T04:44:01;99682;;;15.57;89.55
62632;BME280;48703;51.248;-0.546;2023-07-24T04:47:03;99681;;;15.59;89.69
62632;BME280;48703;51.248;-0.546;2023-07-24T04:50:05;99685;;;15.58;90.31
62632;BME280;48703;51.248;-0.546;2023-07-24T04:53:06;99687;;;15.59;90.21
62632;BME280;48703;51.248;-0.546;2023-07-24T04:56:08;99691;;;15.60;91.34
62632;BME280;48703;51.248;-0.546;2023-07-24T04:59:10;99695;;;15.57;90.49
62632;BME280;48703;51.248;-0.546;2023-07-24T05:02:12;99698;;;15.57;90.06
62632;BME280;48703;51.248;-0.546;2023-07-24T05:05:14;99700;;;15.59;90.22
62632;BME280;48703;51.248;-0.546;2023-07-24T05:08:16;99703;;;15.62;91.40
62632;BME280;48703;51.248;-0.546;2023-07-24T05:11:18;99708;;;15.60;91.76
62632;BME280;48703;51.248;-0.546;2023-07-24T05:14:19;99709;;;15.60;91.23
62632;BME280;48703;51.248;-0.546;2023-07-24T05:17:21;99709;;;15.61;91.12
62632;BME280;48703;51.248;-0.546;2023-07-24T05:20:23;99706;;;15.63;91.03
62632;BME280;48703;51.248;-0.546;2023-07-24T05:23:25;99705;;;15.62;90.74
62632;BME280;48703;51.248;-0.546;2023-07-24T05:26:27;99708;;;15.60;90.26
62632;BME280;48703;51.248;-0.546;2023-07-24T05:29:29;99712;;;15.62;90.51
62632;BME280;48703;51.248;-0.546;2023-07-24T05:32:31;99715;;;15.62;91.05
62632;BME280;48703;51.248;-0.546;2023-07-24T05:35:33;99717;;;15.62;91.68
62632;BME280;48703;51.248;-0.546;2023-07-24T05:38:34;99712;;;15.63;90.22
62632;BME280;48703;51.248;-0.546;2023-07-24T05:41:36;99712;;;15.65;90.09
62632;BME280;48703;51.248;-0.546;2023-07-24T05:44:38;99711;;;15.67;89.90
62632;BME280;48703;51.248;-0.546;2023-07-24T05:47:40;99713;;;15.67;89.11
62632;BME280;48703;51.248;-0.546;2023-07-24T05:50:42;99718;;;15.68;91.87
62632;BME280;48703;51.248;-0.546;2023-07-24T05:53:44;99718;;;15.67;90.83
62632;BME280;48703;51.248;-0.546;2023-07-24T05:56:46;99715;;;15.67;90.80
62632;BME280;48703;51.248;-0.546;2023-07-24T05:59:48;99714;;;15.69;90.41
62632;BME280;48703;51.248;-0.546;2023-07-24T06:02:49;99713;;;15.71;90.62
62632;BME280;48703;51.248;-0.546;2023-07-24T06:05:51;99709;;;15.72;90.34
62632;BME280;48703;51.248;-0.546;2023-07-24T06:08:53;99709;;;15.76;90.21
62632;BME280;48703;51.248;-0.546;2023-07-24T06:11:55;99711;;;15.78;90.42
62632;BME280;48703;51.248;-0.546;2023-07-24T06:14:57;99713;;;15.80;90.07
62632;BME280;48703;51.248;-0.546;2023-07-24T06:17:59;99718;;;15.84;91.84
62632;BME280;48703;51.248;-0.546;2023-07-24T06:21:01;99717;;;15.84;90.33
62632;BME280;48703;51.248;-0.546;2023-07-24T06:24:03;99716;;;15.86;90.30
62632;BME280;48703;51.248;-0.546;2023-07-24T06:27:05;99712;;;15.88;90.64
62632;BME280;48703;51.248;-0.546;2023-07-24T06:30:07;99715;;;15.89;91.41
62632;BME280;48703;51.248;-0.546;2023-07-24T06:33:09;99720;;;15.91;90.64
62632;BME280;48703;51.248;-0.546;2023-07-24T06:36:10;99721;;;15.93;90.56
62632;BME280;48703;51.248;-0.546;2023-07-24T06:39:12;99720;;;15.95;89.88
62632;BME280;48703;51.248;-0.546;2023-07-24T06:42:14;99721;;;15.95;90.57
62632;BME280;48703;51.248;-0.546;2023-07-24T06:45:16;99724;;;15.95;90.43
62632;BME280;48703;51.248;-0.546;2023-07-24T06:48:18;99724;;;15.97;90.69
62632;BME280;48703;51.248;-0.546;2023-07-24T06:51:19;99725;;;16.00;91.63
62632;BME280;48703;51.248;-0.546;2023-07-24T06:54:21;99725;;;16.01;91.87
62632;BME280;48703;51.248;-0.546;2023-07-24T06:57:23;99722;;;16.02;90.87
62632;BME280;48703;51.248;-0.546;2023-07-24T07:00:25;99726;;;16.05;90.43
62632;BME280;48703;51.248;-0.546;2023-07-24T07:03:27;99728;;;16.11;91.79
62632;BME280;48703;51.248;-0.546;2023-07-24T07:06:29;99732;;;16.14;92.06
62632;BME280;48703;51.248;-0.546;2023-07-24T07:09:31;99735;;;16.14;91.50
62632;BME280;48703;51.248;-0.546;2023-07-24T07:12:33;99736;;;16.14;92.18
62632;BME280;48703;51.248;-0.546;2023-07-24T07:15:35;99738;;;16.19;91.57
62632;BME280;48703;51.248;-0.546;2023-07-24T07:18:36;99740;;;16.21;91.30
62632;BME280;48703;51.248;-0.546;2023-07-24T07:21:38;99743;;;16.21;90.69
62632;BME280;48703;51.248;-0.546;2023-07-24T07:24:40;99745;;;16.24;90.41
62632;BME280;48703;51.248;-0.546;2023-07-24T07:27:42;99745;;;16.28;89.56
62632;BME280;48703;51.248;-0.546;2023-07-24T07:30:44;99746;;;16.29;89.38
62632;BME280;48703;51.248;-0.546;2023-07-24T07:33:46;99748;;;16.31;89.84
62632;BME280;48703;51.248;-0.546;2023-07-24T07:36:47;99749;;;16.33;90.83
62632;BME280;48703;51.248;-0.546;2023-07-24T07:39:49;99751;;;16.35;90.33
62632;BME280;48703;51.248;-0.546;2023-07-24T07:42:51;99750;;;16.37;90.03
62632;BME280;48703;51.248;-0.546;2023-07-24T07:45:53;99750;;;16.39;89.51
62632;BME280;48703;51.248;-0.546;2023-07-24T07:48:55;99748;;;16.41;89.23
62632;BME280;48703;51.248;-0.546;2023-07-24T07:51:57;99746;;;16.48;89.43
62632;BME280;48703;51.248;-0.546;2023-07-24T07:54:59;99743;;;16.50;88.91
62632;BME280;48703;51.248;-0.546;2023-07-24T07:58:01;99744;;;16.59;89.35
62632;BME280;48703;51.248;-0.546;2023-07-24T08:01:03;99740;;;16.65;88.99
62632;BME280;48703;51.248;-0.546;2023-07-24T08:04:04;99739;;;16.73;89.06
62632;BME280;48703;51.248;-0.546;2023-07-24T08:07:06;99741;;;16.78;88.33
62632;BME280;48703;51.248;-0.546;2023-07-24T08:10:08;99745;;;16.80;88.45
62632;BME280;48703;51.248;-0.546;2023-07-24T08:13:10;99750;;;16.84;88.14
62632;BME280;48703;51.248;-0.546;2023-07-24T08:16:12;99751;;;16.87;87.79
62632;BME280;48703;51.248;-0.546;2023-07-24T08:19:14;99751;;;16.91;87.41
62632;BME280;48703;51.248;-0.546;2023-07-24T08:22:16;99753;;;16.93;87.66
62632;BME280;48703;51.248;-0.546;2023-07-24T08:25:17;99754;;;16.98;87.26
62632;BME280;48703;51.248;-0.546;2023-07-24T08:28:19;99758;;;17.01;86.84
62632;BME280;48703;51.248;-0.546;2023-07-24T08:31:21;99758;;;17.04;87.37
62632;BME280;48703;51.248;-0.546;2023-07-24T08:34:23;99753;;;17.04;86.30
62632;BME280;48703;51.248;-0.546;2023-07-24T08:37:25;99755;;;17.05;86.32
62632;BME280;48703;51.248;-0.546;2023-07-24T08:40:27;99759;;;17.05;85.46
62632;BME280;48703;51.248;-0.546;2023-07-24T08:43:29;99760;;;17.06;85.36
62632;BME280;48703;51.248;-0.546;2023-07-24T08:46:31;99761;;;17.08;85.24
62632;BME280;48703;51.248;-0.546;2023-07-24T08:49:33;99763;;;17.08;85.10
62632;BME280;48703;51.248;-0.546;2023-07-24T08:52:34;99764;;;17.15;85.67
62632;BME280;48703;51.248;-0.546;2023-07-24T08:55:36;99765;;;17.18;84.93
62632;BME280;48703;51.248;-0.546;2023-07-24T08:58:38;99767;;;17.21;83.93
62632;BME280;48703;51.248;-0.546;2023-07-24T09:01:40;99769;;;17.29;83.84
62632;BME280;48703;51.248;-0.546;2023-07-24T09:04:42;99769;;;17.33;84.08
62632;BME280;48703;51.248;-0.546;2023-07-24T09:07:44;99770;;;17.41;84.15
62632;BME280;48703;51.248;-0.546;2023-07-24T09:10:45;99772;;;17.44;82.66
62632;BME280;48703;51.248;-0.546;2023-07-24T09:13:47;99771;;;17.53;82.77
62632;BME280;48703;51.248;-0.546;2023-07-24T09:16:49;99771;;;17.60;82.19
62632;BME280;48703;51.248;-0.546;2023-07-24T09:19:55;99780;;;17.60;82.08
62632;BME280;48703;51.248;-0.546;2023-07-24T09:22:53;99782;;;17.48;82.68
62632;BME280;48703;51.248;-0.546;2023-07-24T09:25:55;99788;;;17.42;83.92
62632;BME280;48703;51.248;-0.546;2023-07-24T09:28:57;99791;;;17.26;85.27
62632;BME280;48703;51.248;-0.546;2023-07-24T09:31:59;99796;;;17.17;85.53
62632;BME280;48703;51.248;-0.546;2023-07-24T09:35:00;99798;;;17.03;86.80
62632;BME280;48703;51.248;-0.546;2023-07-24T09:38:03;99807;;;16.89;87.95
62632;BME280;48703;51.248;-0.546;2023-07-24T09:41:05;99813;;;16.75;88.54
62632;BME280;48703;51.248;-0.546;2023-07-24T09:44:06;99817;;;16.66;88.64
62632;BME280;48703;51.248;-0.546;2023-07-24T09:47:08;99821;;;16.60;88.60
62632;BME280;48703;51.248;-0.546;2023-07-24T09:50:10;99826;;;16.54;89.47
62632;BME280;48703;51.248;-0.546;2023-07-24T09:53:12;99834;;;16.49;89.81
62632;BME280;48703;51.248;-0.546;2023-07-24T09:56:14;99837;;;16.39;89.73
62632;BME280;48703;51.248;-0.546;2023-07-24T09:59:15;99842;;;16.32;89.76
62632;BME280;48703;51.248;-0.546;2023-07-24T10:02:17;99845;;;16.27;90.09
62632;BME280;48703;51.248;-0.546;2023-07-24T10:05:19;99848;;;16.25;90.04
62632;BME280;48703;51.248;-0.546;2023-07-24T10:08:21;99850;;;16.25;92.03
62632;BME280;48703;51.248;-0.546;2023-07-24T10:11:23;99852;;;16.30;91.34
62632;BME280;48703;51.248;-0.546;2023-07-24T10:14:25;99853;;;16.31;91.02
62632;BME280;48703;51.248;-0.546;2023-07-24T10:17:34;99860;;;16.35;91.76
62632;BME280;48703;51.248;-0.546;2023-07-24T10:20:32;99866;;;16.38;90.76
62632;BME280;48703;51.248;-0.546;2023-07-24T10:23:31;99873;;;16.36;90.16
62632;BME280;48703;51.248;-0.546;2023-07-24T10:26:33;99878;;;16.37;90.41
62632;BME280;48703;51.248;-0.546;2023-07-24T10:29:35;99885;;;16.36;90.85
62632;BME280;48703;51.248;-0.546;2023-07-24T10:32:44;99889;;;16.33;90.41
62632;BME280;48703;51.248;-0.546;2023-07-24T10:35:39;99895;;;16.31;90.83
62632;BME280;48703;51.248;-0.546;2023-07-24T10:38:40;99901;;;16.24;90.97
62632;BME280;48703;51.248;-0.546;2023-07-24T10:41:42;99904;;;16.16;90.82
62632;BME280;48703;51.248;-0.546;2023-07-24T10:44:44;99910;;;16.14;92.23
62632;BME280;48703;51.248;-0.546;2023-07-24T10:47:45;99911;;;16.15;90.77
62632;BME280;48703;51.248;-0.546;2023-07-24T10:50:48;99915;;;16.13;91.63
62632;BME280;48703;51.248;-0.546;2023-07-24T10:53:49;99917;;;16.13;91.49
62632;BME280;48703;51.248;-0.546;2023-07-24T10:56:57;99921;;;16.20;92.18
62632;BME280;48703;51.248;-0.546;2023-07-24T10:59:53;99925;;;16.18;90.90
62632;BME280;48703;51.248;-0.546;2023-07-24T11:02:55;99928;;;16.20;91.65
62632;BME280;48703;51.248;-0.546;2023-07-24T11:05:57;99930;;;16.26;92.19
62632;BME280;48703;51.248;-0.546;2023-07-24T11:08:59;99933;;;16.33;90.34
62632;BME280;48703;51.248;-0.546;2023-07-24T11:12:08;99937;;;16.39;90.79
62632;BME280;48703;51.248;-0.546;2023-07-24T11:15:02;99938;;;16.51;90.91
62632;BME280;48703;51.248;-0.546;2023-07-24T11:18:04;99940;;;16.54;88.99
62632;BME280;48703;51.248;-0.546;2023-07-24T11:21:06;99946;;;16.54;89.12
62632;BME280;48703;51.248;-0.546;2023-07-24T11:24:08;99953;;;16.46;88.06
62632;BME280;48703;51.248;-0.546;2023-07-24T11:27:12;99950;;;16.43;87.87
62632;BME280;48703;51.248;-0.546;2023-07-24T11:30:12;99952;;;16.45;88.18
62632;BME280;48703;51.248;-0.546;2023-07-24T11:33:14;99956;;;16.46;88.85
62632;BME280;48703;51.248;-0.546;2023-07-24T11:36:15;99961;;;16.47;88.09
62632;BME280;48703;51.248;-0.546;2023-07-24T11:39:21;99964;;;16.50;89.03
62632;BME280;48703;51.248;-0.546;2023-07-24T11:42:19;99967;;;16.51;88.26
62632;BME280;48703;51.248;-0.546;2023-07-24T11:45:21;99969;;;16.56;87.63
62632;BME280;48703;51.248;-0.546;2023-07-24T11:48:24;99970;;;16.63;87.52
62632;BME280;48703;51.248;-0.546;2023-07-24T11:51:25;99970;;;16.75;87.69
62632;BME280;48703;51.248;-0.546;2023-07-24T11:54:27;99973;;;16.88;87.77
62632;BME280;48703;51.248;-0.546;2023-07-24T11:57:28;99974;;;16.96;87.16
62632;BME280;48703;51.248;-0.546;2023-07-24T12:00:32;99977;;;16.96;86.15
62632;BME280;48703;51.248;-0.546;2023-07-24T12:03:32;99978;;;16.94;84.40
62632;BME280;48703;51.248;-0.546;2023-07-24T12:06:34;99978;;;16.89;83.80
62632;BME280;48703;51.248;-0.546;2023-07-24T12:09:36;99981;;;16.82;84.16
62632;BME280;48703;51.248;-0.546;2023-07-24T12:12:38;99981;;;16.73;83.53
62632;BME280;48703;51.248;-0.546;2023-07-24T12:15:40;99981;;;16.68;84.29
62632;BME280;48703;51.248;-0.546;2023-07-24T12:18:42;99988;;;16.64;83.14
62632;BME280;48703;51.248;-0.546;2023-07-24T12:21:43;99990;;;16.60;83.16
62632;BME280;48703;51.248;-0.546;2023-07-24T12:24:45;99991;;;16.58;83.39
62632;BME280;48703;51.248;-0.546;2023-07-24T12:27:47;99992;;;16.58;83.32
62632;BME280;48703;51.248;-0.546;2023-07-24T12:30:49;99994;;;16.59;83.32
62632;BME280;48703;51.248;-0.546;2023-07-24T12:33:51;99998;;;16.57;83.15
62632;BME280;48703;51.248;-0.546;2023-07-24T12:36:53;100000;;;16.55;82.60
62632;BME280;48703;51.248;-0.546;2023-07-24T12:39:55;100001;;;16.52;82.90
62632;BME280;48703;51.248;-0.546;2023-07-24T12:42:56;100004;;;16.52;82.59
62632;BME280;48703;51.248;-0.546;2023-07-24T12:45:58;100004;;;16.51;82.44
62632;BME280;48703;51.248;-0.546;2023-07-24T12:49:00;100003;;;16.53;82.99
62632;BME280;48703;51.248;-0.546;2023-07-24T12:52:02;100003;;;16.54;82.11
62632;BME280;48703;51.248;-0.546;2023-07-24T12:55:05;100006;;;16.57;81.94
62632;BME280;48703;51.248;-0.546;2023-07-24T12:58:06;100008;;;16.59;81.98
62632;BME280;48703;51.248;-0.546;2023-07-24T13:01:08;100011;;;16.59;81.71
62632;BME280;48703;51.248;-0.546;2023-07-24T13:04:10;100014;;;16.56;80.90
62632;BME280;48703;51.248;-0.546;2023-07-24T13:07:11;100019;;;16.56;80.72
62632;BME280;48703;51.248;-0.546;2023-07-24T13:10:13;100024;;;16.53;80.42
62632;BME280;48703;51.248;-0.546;2023-07-24T13:13:15;100028;;;16.51;80.85
62632;BME280;48703;51.248;-0.546;2023-07-24T13:16:17;100030;;;16.52;81.22
62632;BME280;48703;51.248;-0.546;2023-07-24T13:19:19;100035;;;16.50;80.99
62632;BME280;48703;51.248;-0.546;2023-07-24T13:22:21;100035;;;16.46;81.21
62632;BME280;48703;51.248;-0.546;2023-07-24T13:25:23;100033;;;16.42;80.92
62632;BME280;48703;51.248;-0.546;2023-07-24T13:28:25;100030;;;16.39;80.92
62632;BME280;48703;51.248;-0.546;2023-07-24T13:31:26;100030;;;16.38;81.03
62632;BME280;48703;51.248;-0.546;2023-07-24T13:34:28;100032;;;16.37;81.16
62632;BME280;48703;51.248;-0.546;2023-07-24T13:37:30;100038;;;16.37;80.58
62632;BME280;48703;51.248;-0.546;2023-07-24T13:40:32;100042;;;16.35;80.79
62632;BME280;48703;51.248;-0.546;2023-07-24T13:43:34;100045;;;16.36;80.62
62632;BME280;48703;51.248;-0.546;2023-07-24T13:46:36;100041;;;16.40;80.91
62632;BME280;48703;51.248;-0.546;2023-07-24T13:49:38;100041;;;16.43;80.39
62632;BME280;48703;51.248;-0.546;2023-07-24T13:52:40;100044;;;16.48;80.68
62632;BME280;48703;51.248;-0.546;2023-07-24T13:55:41;100048;;;16.52;80.99
62632;BME280;48703;51.248;-0.546;2023-07-24T13:58:43;100049;;;16.49;80.24
62632;BME280;48703;51.248;-0.546;2023-07-24T14:01:45;100053;;;16.49;79.70
62632;BME280;48703;51.248;-0.546;2023-07-24T14:04:48;100055;;;16.49;79.97
62632;BME280;48703;51.248;-0.546;2023-07-24T14:07:49;100058;;;16.48;78.82
62632;BME280;48703;51.248;-0.546;2023-07-24T14:10:51;100059;;;16.45;77.98
62632;BME280;48703;51.248;-0.546;2023-07-24T14:13:53;100060;;;16.42;77.91
62632;BME280;48703;51.248;-0.546;2023-07-24T14:16:54;100060;;;16.42;78.37
62632;BME280;48703;51.248;-0.546;2023-07-24T14:19:56;100062;;;16.40;77.88
62632;BME280;48703;51.248;-0.546;2023-07-24T14:22:58;100061;;;16.39;77.94
62632;BME280;48703;51.248;-0.546;2023-07-24T14:26:00;100060;;;16.40;78.97
62632;BME280;48703;51.248;-0.546;2023-07-24T14:29:02;100061;;;16.41;78.92
62632;BME280;48703;51.248;-0.546;2023-07-24T14:32:04;100067;;;16.41;78.60
62632;BME280;48703;51.248;-0.546;2023-07-24T14:35:06;100076;;;16.46;78.66
62632;BME280;48703;51.248;-0.546;2023-07-24T14:38:08;100077;;;16.48;78.27
62632;BME280;48703;51.248;-0.546;2023-07-24T14:41:09;100080;;;16.50;77.51
62632;BME280;48703;51.248;-0.546;2023-07-24T14:44:11;100082;;;16.55;78.10
62632;BME280;48703;51.248;-0.546;2023-07-24T14:47:13;100084;;;16.62;77.49
62632;BME280;48703;51.248;-0.546;2023-07-24T14:50:15;100084;;;16.71;76.99
62632;BME280;48703;51.248;-0.546;2023-07-24T14:53:17;100088;;;16.75;75.78
62632;BME280;48703;51.248;-0.546;2023-07-24T14:56:19;100094;;;16.79;75.70
62632;BME280;48703;51.248;-0.546;2023-07-24T14:59:21;100097;;;16.80;74.59
62632;BME280;48703;51.248;-0.546;2023-07-24T15:02:23;100097;;;16.81;74.42
62632;BME280;48703;51.248;-0.546;2023-07-24T15:05:24;100095;;;16.81;74.26
62632;BME280;48703;51.248;-0.546;2023-07-24T15:08:26;100096;;;16.81;73.94
62632;BME280;48703;51.248;-0.546;2023-07-24T15:11:28;100098;;;16.85;75.32
62632;BME280;48703;51.248;-0.546;2023-07-24T15:14:30;100096;;;16.90;74.40
62632;BME280;48703;51.248;-0.546;2023-07-24T15:17:32;100096;;;16.95;74.52
62632;BME280;48703;51.248;-0.546;2023-07-24T15:20:34;100103;;;16.98;74.42
62632;BME280;48703;51.248;-0.546;2023-07-24T15:23:36;100105;;;17.01;74.79
62632;BME280;48703;51.248;-0.546;2023-07-24T15:26:38;100104;;;17.02;73.47
62632;BME280;48703;51.248;-0.546;2023-07-24T15:29:39;100103;;;17.01;73.88
62632;BME280;48703;51.248;-0.546;2023-07-24T15:32:41;100101;;;17.01;72.62
62632;BME280;48703;51.248;-0.546;2023-07-24T15:35:43;100101;;;16.98;73.03
62632;BME280;48703;51.248;-0.546;2023-07-24T15:38:45;100100;;;16.96;72.12
62632;BME280;48703;51.248;-0.546;2023-07-24T15:41:47;100099;;;16.95;72.42
62632;BME280;48703;51.248;-0.546;2023-07-24T15:44:49;100101;;;17.01;73.58
62632;BME280;48703;51.248;-0.546;2023-07-24T15:47:51;100101;;;17.06;73.47
62632;BME280;48703;51.248;-0.546;2023-07-24T15:50:52;100102;;;17.06;72.71
62632;BME280;48703;51.248;-0.546;2023-07-24T15:53:54;100105;;;17.10;73.04
62632;BME280;48703;51.248;-0.546;2023-07-24T15:56:56;100102;;;17.13;72.30
62632;BME280;48703;51.248;-0.546;2023-07-24T15:59:58;100106;;;17.12;71.76
62632;BME280;48703;51.248;-0.546;2023-07-24T16:03:00;100106;;;17.11;71.90
62632;BME280;48703;51.248;-0.546;2023-07-24T16:06:02;100104;;;17.14;72.00
62632;BME280;48703;51.248;-0.546;2023-07-24T16:09:04;100103;;;17.17;71.93
62632;BME280;48703;51.248;-0.546;2023-07-24T16:12:06;100103;;;17.22;72.92
62632;BME280;48703;51.248;-0.546;2023-07-24T16:15:08;100104;;;17.22;71.69
62632;BME280;48703;51.248;-0.546;2023-07-24T16:18:09;100104;;;17.19;71.55
62632;BME280;48703;51.248;-0.546;2023-07-24T16:21:11;100105;;;17.20;72.24
62632;BME280;48703;51.248;-0.546;2023-07-24T16:24:13;100104;;;17.23;72.16
62632;BME280;48703;51.248;-0.546;2023-07-24T16:27:15;100104;;;17.26;72.19